Afton, Iowa
Current Conditions -  °F | °C
As of 6:35 PM on Thursday 27 Nov 2014 (Local Time) from KCSQ Reporting Station
Overcast Overcast  
Wind Chill: -16°   Ceiling: 10000
Heat Index: -9°   Visibility: 10mi
Dew Point: -13°   Wind: 12mph
Humidity: 73%   Direction: 120°ESE
Pressure: 30.34"   Gusts: NA
Location:  41.03°N, 94.2°W
Report Text: KCSQ 280035Z AUTO 12010KT 10SM OVC100 M09/M13 A3034 RMK AO2
Loading
Personal Weather Stations






























Interactive Weather Map New forecast layout! Learn more

10-Day Weather Forecast

Advertisements
Track Severe Weather on mobile